KIND/IND METAR and TAF weather

Enter ICAO airport designator
Station Type Date Time Source
KIND METAR 2022/01/29 12:54 UTC NOAA

KIND 291254Z 22003KT 10SM SCT019 M16/M18 A3027 RMK AO2 SLP269 I1000 T11561178


Station Type Date Time Source
KIND Decoded METAR 2022/01/29 12:54 UTC NOAA

INDIANAPOLIS INTERNATIONAL AIRPORT , IN, United States (KIND) 39-43N 86-17W 242M
Jan 29, 2022 - 07:54 AM EST / 2022.01.29 1254 UTC
Wind: from the SW (220 degrees) at 3 MPH (3 KT):0
Visibility: 10 mile(s):0
Sky conditions: partly cloudy
Temperature: 3.9 F (-15.6 C)
Dew Point: -0.0 F (-17.8 C)
Relative Humidity: 83%
Pressure (altimeter): 30.27 in. Hg (1025 hPa)
ob: KIND 291254Z 22003KT 10SM SCT019 M16/M18 A3027 RMK AO2 SLP269 I1000 T11561178
cycle: 13

Station Type Date Time Source
KIND TAF 2022/01/29 12:28 UTC NOAA

TAF KIND 291126Z 2912/3018 24006KT P6SM FEW020 BKN090
FM291800 22009KT P6SM BKN150
FM300000 18006KT P6SM BKN200

Example: see airport list